sensor_id;sensor_type;location;lat;lon;timestamp;pressure;altitude;pressure_sealevel;temperature;humidity
83496;BME280;73431;40.794;43.836;2024-02-04T00:02:17;84499.16;;;-2.81;54.94
83496;BME280;73431;40.794;43.836;2024-02-04T00:04:51;84499.19;;;-2.84;55.57
83496;BME280;73431;40.794;43.836;2024-02-04T00:07:19;84487.78;;;-2.87;55.48
83496;BME280;73431;40.794;43.836;2024-02-04T00:09:47;84483.00;;;-2.78;55.29
83496;BME280;73431;40.794;43.836;2024-02-04T00:12:15;84496.19;;;-2.65;55.35
83496;BME280;73431;40.794;43.836;2024-02-04T00:14:43;84483.34;;;-2.76;54.74
83496;BME280;73431;40.794;43.836;2024-02-04T00:17:11;84485.53;;;-2.74;55.51
83496;BME280;73431;40.794;43.836;2024-02-04T00:19:38;84470.47;;;-2.79;55.17
83496;BME280;73431;40.794;43.836;2024-02-04T00:22:06;84471.25;;;-2.89;55.18
83496;BME280;73431;40.794;43.836;2024-02-04T00:24:34;84465.41;;;-2.97;55.34
83496;BME280;73431;40.794;43.836;2024-02-04T00:27:01;84462.47;;;-3.02;55.83
83496;BME280;73431;40.794;43.836;2024-02-04T00:29:29;84477.53;;;-2.97;56.10
83496;BME280;73431;40.794;43.836;2024-02-04T00:31:57;84470.16;;;-2.95;56.03
83496;BME280;73431;40.794;43.836;2024-02-04T00:34:24;84468.69;;;-2.96;56.58
83496;BME280;73431;40.794;43.836;2024-02-04T00:36:52;84467.59;;;-2.99;55.91
83496;BME280;73431;40.794;43.836;2024-02-04T00:39:20;84457.28;;;-2.95;56.09
83496;BME280;73431;40.794;43.836;2024-02-04T00:41:48;84460.59;;;-2.95;56.20
83496;BME280;73431;40.794;43.836;2024-02-04T00:44:15;84453.22;;;-2.93;56.18
83496;BME280;73431;40.794;43.836;2024-02-04T00:46:44;84445.16;;;-2.91;55.66
83496;BME280;73431;40.794;43.836;2024-02-04T00:49:11;84449.16;;;-2.87;55.71
83496;BME280;73431;40.794;43.836;2024-02-04T00:51:39;84439.59;;;-2.90;55.67
83496;BME280;73431;40.794;43.836;2024-02-04T00:54:07;84441.47;;;-2.94;55.83
83496;BME280;73431;40.794;43.836;2024-02-04T00:56:35;84433.41;;;-2.99;56.17
83496;BME280;73431;40.794;43.836;2024-02-04T00:59:02;84433.78;;;-3.04;55.58
83496;BME280;73431;40.794;43.836;2024-02-04T01:01:32;84428.31;;;-3.10;56.61
83496;BME280;73431;40.794;43.836;2024-02-04T01:04:00;84440.81;;;-3.12;56.34
83496;BME280;73431;40.794;43.836;2024-02-04T01:06:28;84438.25;;;-3.19;56.28
83496;BME280;73431;40.794;43.836;2024-02-04T01:09:03;84424.69;;;-3.30;56.59
83496;BME280;73431;40.794;43.836;2024-02-04T01:11:31;84437.16;;;-3.22;56.37
83496;BME280;73431;40.794;43.836;2024-02-04T01:13:58;84438.97;;;-3.11;56.32
83496;BME280;73431;40.794;43.836;2024-02-04T01:16:26;84440.72;;;-2.91;55.40
83496;BME280;73431;40.794;43.836;2024-02-04T01:18:54;84445.44;;;-2.75;55.08
83496;BME280;73431;40.794;43.836;2024-02-04T01:21:22;84444.28;;;-2.67;55.06
83496;BME280;73431;40.794;43.836;2024-02-04T01:23:49;84367.22;;;-3.06;54.77
83496;BME280;73431;40.794;43.836;2024-02-04T01:26:17;84450.47;;;-2.50;54.83
83496;BME280;73431;40.794;43.836;2024-02-04T01:28:45;84441.97;;;-2.44;54.68
83496;BME280;73431;40.794;43.836;2024-02-04T01:31:13;84437.13;;;-2.38;54.33
83496;BME280;73431;40.794;43.836;2024-02-04T01:33:41;84438.22;;;-2.36;54.25
83496;BME280;73431;40.794;43.836;2024-02-04T01:36:09;84431.22;;;-2.35;54.39
83496;BME280;73431;40.794;43.836;2024-02-04T01:38:37;84425.72;;;-2.34;54.07
83496;BME280;73431;40.794;43.836;2024-02-04T01:41:04;84428.63;;;-2.32;53.65
83496;BME280;73431;40.794;43.836;2024-02-04T01:43:32;84427.50;;;-2.24;53.70
83496;BME280;73431;40.794;43.836;2024-02-04T01:45:59;84421.94;;;-2.22;54.09
83496;BME280;73431;40.794;43.836;2024-02-04T01:48:28;84413.09;;;-2.21;53.84
83496;BME280;73431;40.794;43.836;2024-02-04T01:50:58;84420.44;;;-2.20;53.77
83496;BME280;73431;40.794;43.836;2024-02-04T01:53:28;84413.19;;;-2.35;53.34
83496;BME280;73431;40.794;43.836;2024-02-04T01:55:55;84409.53;;;-2.38;53.53
83496;BME280;73431;40.794;43.836;2024-02-04T01:58:23;84419.38;;;-2.26;53.60
83496;BME280;73431;40.794;43.836;2024-02-04T02:00:52;84424.19;;;-2.24;53.75
83496;BME280;73431;40.794;43.836;2024-02-04T02:03:21;84421.22;;;-2.23;53.57
83496;BME280;73431;40.794;43.836;2024-02-04T02:05:49;84422.28;;;-2.20;53.66
83496;BME280;73431;40.794;43.836;2024-02-04T02:08:17;84407.25;;;-2.25;53.28
83496;BME280;73431;40.794;43.836;2024-02-04T02:10:46;84421.66;;;-2.35;53.22
83496;BME280;73431;40.794;43.836;2024-02-04T02:13:28;84427.91;;;-2.36;53.66
83496;BME280;73431;40.794;43.836;2024-02-04T02:16:04;84426.06;;;-2.35;53.66
83496;BME280;73431;40.794;43.836;2024-02-04T02:18:43;84413.28;;;-2.46;53.38
83496;BME280;73431;40.794;43.836;2024-02-04T02:24:32;84419.91;;;-2.48;53.92
83496;BME280;73431;40.794;43.836;2024-02-04T02:27:00;84413.00;;;-2.62;53.24
83496;BME280;73431;40.794;43.836;2024-02-04T02:29:28;84432.13;;;-2.63;53.46
83496;BME280;73431;40.794;43.836;2024-02-04T02:31:56;84422.59;;;-2.66;53.02
83496;BME280;73431;40.794;43.836;2024-02-04T02:34:24;84425.91;;;-2.69;53.30
83496;BME280;73431;40.794;43.836;2024-02-04T02:40:01;84412.00;;;-2.82;53.41
83496;BME280;73431;40.794;43.836;2024-02-04T02:42:34;84430.34;;;-2.73;53.66
83496;BME280;73431;40.794;43.836;2024-02-04T02:45:04;84430.00;;;-2.75;53.42
83496;BME280;73431;40.794;43.836;2024-02-04T02:47:33;84433.25;;;-2.71;53.33
83496;BME280;73431;40.794;43.836;2024-02-04T02:50:01;84427.03;;;-2.74;53.54
83496;BME280;73431;40.794;43.836;2024-02-04T02:52:29;84430.31;;;-2.70;53.88
83496;BME280;73431;40.794;43.836;2024-02-04T02:54:57;84429.25;;;-2.76;53.75
83496;BME280;73431;40.794;43.836;2024-02-04T02:57:25;84422.03;;;-3.12;54.29
83496;BME280;73431;40.794;43.836;2024-02-04T02:59:54;84424.03;;;-3.48;54.93
83496;BME280;73431;40.794;43.836;2024-02-04T03:02:22;84424.44;;;-3.64;55.90
83496;BME280;73431;40.794;43.836;2024-02-04T03:04:50;84428.44;;;-3.63;55.94
83496;BME280;73431;40.794;43.836;2024-02-04T03:07:18;84426.59;;;-3.62;55.92
83496;BME280;73431;40.794;43.836;2024-02-04T03:09:46;84409.72;;;-3.67;56.36
83496;BME280;73431;40.794;43.836;2024-02-04T03:12:15;84425.13;;;-3.60;56.16
83496;BME280;73431;40.794;43.836;2024-02-04T03:14:42;84431.00;;;-3.56;56.44
83496;BME280;73431;40.794;43.836;2024-02-04T03:17:10;84428.78;;;-3.54;56.09
83496;BME280;73431;40.794;43.836;2024-02-04T03:19:39;84419.28;;;-3.67;56.44
83496;BME280;73431;40.794;43.836;2024-02-04T03:22:07;84422.22;;;-3.80;56.21
83496;BME280;73431;40.794;43.836;2024-02-04T03:24:34;84421.13;;;-3.82;56.19
83496;BME280;73431;40.794;43.836;2024-02-04T03:27:02;84431.41;;;-3.75;56.35
83496;BME280;73431;40.794;43.836;2024-02-04T03:29:31;84424.44;;;-3.71;56.96
83496;BME280;73431;40.794;43.836;2024-02-04T03:31:58;84404.59;;;-3.70;56.14
83496;BME280;73431;40.794;43.836;2024-02-04T03:34:26;84409.34;;;-3.55;57.06
83496;BME280;73431;40.794;43.836;2024-02-04T03:36:54;84401.97;;;-3.56;56.26
83496;BME280;73431;40.794;43.836;2024-02-04T03:39:22;84407.84;;;-3.45;56.27
83496;BME280;73431;40.794;43.836;2024-02-04T03:41:49;84405.63;;;-3.47;56.10
83496;BME280;73431;40.794;43.836;2024-02-04T03:44:17;84410.03;;;-3.44;56.23
83496;BME280;73431;40.794;43.836;2024-02-04T03:46:48;84407.44;;;-3.37;55.89
83496;BME280;73431;40.794;43.836;2024-02-04T03:49:18;84411.06;;;-3.20;55.47
83496;BME280;73431;40.794;43.836;2024-02-04T03:51:46;84414.69;;;-3.10;55.30
83496;BME280;73431;40.794;43.836;2024-02-04T03:54:13;84418.78;;;-3.16;55.41
83496;BME280;73431;40.794;43.836;2024-02-04T03:56:41;84401.19;;;-3.36;55.77
83496;BME280;73431;40.794;43.836;2024-02-04T03:59:08;84395.31;;;-3.43;55.46
83496;BME280;73431;40.794;43.836;2024-02-04T04:01:38;84415.50;;;-3.31;56.51
83496;BME280;73431;40.794;43.836;2024-02-04T04:04:06;84410.31;;;-3.13;55.93
83496;BME280;73431;40.794;43.836;2024-02-04T04:06:35;84422.72;;;-2.91;55.35
83496;BME280;73431;40.794;43.836;2024-02-04T04:09:03;84416.72;;;-2.74;55.04
83496;BME280;73431;40.794;43.836;2024-02-04T04:11:31;84419.28;;;-2.67;54.90
83496;BME280;73431;40.794;43.836;2024-02-04T04:13:58;84412.59;;;-2.57;54.49
83496;BME280;73431;40.794;43.836;2024-02-04T04:16:26;84418.94;;;-2.69;56.10
83496;BME280;73431;40.794;43.836;2024-02-04T04:18:54;84401.72;;;-2.86;55.54
83496;BME280;73431;40.794;43.836;2024-02-04T04:21:22;84427.03;;;-2.77;55.09
83496;BME280;73431;40.794;43.836;2024-02-04T04:23:50;84431.41;;;-2.67;55.74
83496;BME280;73431;40.794;43.836;2024-02-04T04:26:17;84434.59;;;-2.45;55.37
83496;BME280;73431;40.794;43.836;2024-02-04T04:28:45;84408.91;;;-2.52;56.04
83496;BME280;73431;40.794;43.836;2024-02-04T04:31:13;84425.78;;;-2.48;55.79
83496;BME280;73431;40.794;43.836;2024-02-04T04:33:40;84418.00;;;-2.37;54.86
83496;BME280;73431;40.794;43.836;2024-02-04T04:36:08;84431.50;;;-2.23;54.66
83496;BME280;73431;40.794;43.836;2024-02-04T04:38:36;84422.97;;;-2.13;54.67
83496;BME280;73431;40.794;43.836;2024-02-04T04:41:03;84420.34;;;-2.05;53.65
83496;BME280;73431;40.794;43.836;2024-02-04T04:43:31;84432.06;;;-1.94;52.66
83496;BME280;73431;40.794;43.836;2024-02-04T04:46:01;84408.16;;;-1.98;52.08
83496;BME280;73431;40.794;43.836;2024-02-04T04:48:29;84428.34;;;-1.89;52.11
83496;BME280;73431;40.794;43.836;2024-02-04T04:50:56;84433.84;;;-1.87;51.29
83496;BME280;73431;40.794;43.836;2024-02-04T04:53:24;84430.88;;;-1.82;51.51
83496;BME280;73431;40.794;43.836;2024-02-04T04:55:51;84429.34;;;-1.76;51.49
83496;BME280;73431;40.794;43.836;2024-02-04T04:58:19;84434.84;;;-1.74;51.84
83496;BME280;73431;40.794;43.836;2024-02-04T05:00:47;84435.56;;;-1.70;51.60
83496;BME280;73431;40.794;43.836;2024-02-04T05:03:15;84432.94;;;-1.63;52.21
83496;BME280;73431;40.794;43.836;2024-02-04T05:05:43;84438.00;;;-1.56;51.50
83496;BME280;73431;40.794;43.836;2024-02-04T05:08:12;84444.63;;;-1.51;51.65
83496;BME280;73431;40.794;43.836;2024-02-04T05:10:41;84439.75;;;-1.46;51.91
83496;BME280;73431;40.794;43.836;2024-02-04T05:13:09;84444.53;;;-1.41;51.92
83496;BME280;73431;40.794;43.836;2024-02-04T05:15:37;84447.44;;;-1.39;51.68
83496;BME280;73431;40.794;43.836;2024-02-04T05:18:04;84447.09;;;-1.37;51.59
83496;BME280;73431;40.794;43.836;2024-02-04T05:20:32;84453.66;;;-1.33;52.18
83496;BME280;73431;40.794;43.836;2024-02-04T05:23:00;84429.88;;;-1.51;51.75
83496;BME280;73431;40.794;43.836;2024-02-04T05:25:28;84443.38;;;-1.40;52.40
83496;BME280;73431;40.794;43.836;2024-02-04T05:27:56;84444.06;;;-1.32;52.13
83496;BME280;73431;40.794;43.836;2024-02-04T05:30:24;84448.91;;;-1.38;51.52
83496;BME280;73431;40.794;43.836;2024-02-04T05:32:52;84436.41;;;-1.43;52.21
83496;BME280;73431;40.794;43.836;2024-02-04T05:35:19;84432.84;;;-1.56;52.48
83496;BME280;73431;40.794;43.836;2024-02-04T05:37:47;84440.94;;;-1.50;52.96
83496;BME280;73431;40.794;43.836;2024-02-04T05:40:15;84441.91;;;-1.37;52.61
83496;BME280;73431;40.794;43.836;2024-02-04T05:42:45;84437.31;;;-1.19;52.43
83496;BME280;73431;40.794;43.836;2024-02-04T05:45:13;84431.28;;;-1.05;52.44
83496;BME280;73431;40.794;43.836;2024-02-04T05:47:41;84430.81;;;-0.97;52.54
83496;BME280;73431;40.794;43.836;2024-02-04T05:50:09;84432.31;;;-0.99;52.73
83496;BME280;73431;40.794;43.836;2024-02-04T05:52:37;84433.75;;;-0.98;52.72
83496;BME280;73431;40.794;43.836;2024-02-04T05:55:05;84430.72;;;-0.90;52.86
83496;BME280;73431;40.794;43.836;2024-02-04T05:57:33;84444.66;;;-0.80;51.84
83496;BME280;73431;40.794;43.836;2024-02-04T06:00:01;84437.56;;;-0.76;51.54
83496;BME280;73431;40.794;43.836;2024-02-04T06:02:35;84438.34;;;-0.79;52.54
83496;BME280;73431;40.794;43.836;2024-02-04T06:05:02;84435.03;;;-1.14;52.50
83496;BME280;73431;40.794;43.836;2024-02-04T06:07:31;84436.75;;;-1.37;53.44
83496;BME280;73431;40.794;43.836;2024-02-04T06:09:59;84428.69;;;-1.43;53.20
83496;BME280;73431;40.794;43.836;2024-02-04T06:12:31;84429.03;;;-1.41;53.25
83496;BME280;73431;40.794;43.836;2024-02-04T06:14:59;84410.41;;;-1.22;54.02
83496;BME280;73431;40.794;43.836;2024-02-04T06:17:26;84421.00;;;-0.79;52.18
83496;BME280;73431;40.794;43.836;2024-02-04T06:19:54;84425.75;;;-0.43;52.17
83496;BME280;73431;40.794;43.836;2024-02-04T06:22:22;84428.41;;;-0.20;50.76
83496;BME280;73431;40.794;43.836;2024-02-04T06:24:50;84420.06;;;-0.05;50.43
83496;BME280;73431;40.794;43.836;2024-02-04T06:27:19;84424.69;;;0.08;50.65
83496;BME280;73431;40.794;43.836;2024-02-04T06:29:47;84415.31;;;0.17;50.31
83496;BME280;73431;40.794;43.836;2024-02-04T06:32:16;84402.41;;;0.14;50.39
83496;BME280;73431;40.794;43.836;2024-02-04T06:34:47;84406.56;;;0.08;50.58
83496;BME280;73431;40.794;43.836;2024-02-04T06:37:15;84416.50;;;0.13;50.28
83496;BME280;73431;40.794;43.836;2024-02-04T06:39:42;84428.19;;;-0.06;51.19
83496;BME280;73431;40.794;43.836;2024-02-04T06:42:11;84430.41;;;-0.05;51.53
83496;BME280;73431;40.794;43.836;2024-02-04T06:44:38;84421.41;;;0.04;51.66
83496;BME280;73431;40.794;43.836;2024-02-04T06:47:05;84424.97;;;0.13;51.73
83496;BME280;73431;40.794;43.836;2024-02-04T06:49:33;84411.94;;;0.20;50.32
83496;BME280;73431;40.794;43.836;2024-02-04T06:52:01;84412.53;;;0.31;50.77
83496;BME280;73431;40.794;43.836;2024-02-04T06:54:29;84415.50;;;0.30;49.80
83496;BME280;73431;40.794;43.836;2024-02-04T06:56:57;84400.28;;;0.09;50.96
83496;BME280;73431;40.794;43.836;2024-02-04T06:59:24;84393.59;;;-0.16;50.73
83496;BME280;73431;40.794;43.836;2024-02-04T07:01:52;84415.31;;;-0.36;51.40
83496;BME280;73431;40.794;43.836;2024-02-04T07:04:20;84407.44;;;-0.26;51.89
83496;BME280;73431;40.794;43.836;2024-02-04T07:06:51;84396.63;;;0.06;51.64
83496;BME280;73431;40.794;43.836;2024-02-04T07:09:19;84393.91;;;0.13;51.52
83496;BME280;73431;40.794;43.836;2024-02-04T07:11:47;84391.63;;;0.19;53.11
83496;BME280;73431;40.794;43.836;2024-02-04T07:14:15;84381.31;;;0.62;52.60
83496;BME280;73431;40.794;43.836;2024-02-04T07:16:42;84382.69;;;0.89;53.75
83496;BME280;73431;40.794;43.836;2024-02-04T07:19:10;84377.06;;;0.94;52.03
83496;BME280;73431;40.794;43.836;2024-02-04T07:21:38;84384.22;;;0.87;49.63
83496;BME280;73431;40.794;43.836;2024-02-04T07:24:05;84391.94;;;0.47;49.87
83496;BME280;73431;40.794;43.836;2024-02-04T07:26:33;84399.28;;;0.49;50.36
83496;BME280;73431;40.794;43.836;2024-02-04T07:29:01;84395.00;;;0.62;50.75
83496;BME280;73431;40.794;43.836;2024-02-04T07:31:28;84378.78;;;0.81;50.31
83496;BME280;73431;40.794;43.836;2024-02-04T07:33:57;84371.47;;;0.96;48.95
83496;BME280;73431;40.794;43.836;2024-02-04T07:36:24;84385.94;;;0.93;48.86
83496;BME280;73431;40.794;43.836;2024-02-04T07:38:52;84391.84;;;0.74;49.11
83496;BME280;73431;40.794;43.836;2024-02-04T07:41:22;84370.78;;;0.72;49.61
83496;BME280;73431;40.794;43.836;2024-02-04T07:43:50;84391.34;;;1.22;49.17
83496;BME280;73431;40.794;43.836;2024-02-04T07:46:17;84390.47;;;1.48;48.78
83496;BME280;73431;40.794;43.836;2024-02-04T07:48:45;84396.25;;;1.92;49.07
83496;BME280;73431;40.794;43.836;2024-02-04T07:51:14;84386.59;;;2.28;46.86
83496;BME280;73431;40.794;43.836;2024-02-04T07:53:42;84382.78;;;2.17;46.38
83496;BME280;73431;40.794;43.836;2024-02-04T07:56:09;84372.06;;;2.47;47.74
83496;BME280;73431;40.794;43.836;2024-02-04T07:58:38;84372.56;;;2.58;46.62
83496;BME280;73431;40.794;43.836;2024-02-04T08:01:06;84367.44;;;2.38;45.67
83496;BME280;73431;40.794;43.836;2024-02-04T08:03:34;84367.56;;;1.99;47.75
83496;BME280;73431;40.794;43.836;2024-02-04T08:06:02;84367.34;;;2.09;47.01
83496;BME280;73431;40.794;43.836;2024-02-04T08:08:30;84369.13;;;1.96;46.63
83496;BME280;73431;40.794;43.836;2024-02-04T08:10:58;84377.16;;;2.02;47.59
83496;BME280;73431;40.794;43.836;2024-02-04T08:13:28;84368.31;;;1.99;47.55
83496;BME280;73431;40.794;43.836;2024-02-04T08:15:56;84369.13;;;1.96;47.23
83496;BME280;73431;40.794;43.836;2024-02-04T08:18:23;84355.19;;;2.23;48.54
83496;BME280;73431;40.794;43.836;2024-02-04T08:20:51;84360.78;;;2.53;47.64
83496;BME280;73431;40.794;43.836;2024-02-04T08:23:20;84350.25;;;2.44;46.11
83496;BME280;73431;40.794;43.836;2024-02-04T08:25:47;84353.94;;;2.76;47.31
83496;BME280;73431;40.794;43.836;2024-02-04T08:28:17;84350.41;;;2.98;47.18
83496;BME280;73431;40.794;43.836;2024-02-04T08:30:45;84343.69;;;3.13;45.29
83496;BME280;73431;40.794;43.836;2024-02-04T08:33:13;84350.69;;;3.16;46.50
83496;BME280;73431;40.794;43.836;2024-02-04T08:35:41;84346.44;;;3.22;44.28
83496;BME280;73431;40.794;43.836;2024-02-04T08:38:09;84347.25;;;3.19;44.43
83496;BME280;73431;40.794;43.836;2024-02-04T08:40:36;84348.69;;;3.08;45.22
83496;BME280;73431;40.794;43.836;2024-02-04T08:43:04;84339.41;;;3.07;45.93
83496;BME280;73431;40.794;43.836;2024-02-04T08:45:32;84335.81;;;3.58;45.94
83496;BME280;73431;40.794;43.836;2024-02-04T08:47:59;84325.97;;;3.79;45.83
83496;BME280;73431;40.794;43.836;2024-02-04T08:50:27;84322.97;;;4.18;46.20
83496;BME280;73431;40.794;43.836;2024-02-04T08:52:55;84325.69;;;4.14;41.77
83496;BME280;73431;40.794;43.836;2024-02-04T08:55:23;84321.06;;;3.93;42.84
83496;BME280;73431;40.794;43.836;2024-02-04T08:57:51;84313.06;;;4.00;43.97
83496;BME280;73431;40.794;43.836;2024-02-04T09:00:20;84308.16;;;3.90;44.07
83496;BME280;73431;40.794;43.836;2024-02-04T09:02:49;84304.50;;;3.62;45.29
83496;BME280;73431;40.794;43.836;2024-02-04T09:05:16;84307.22;;;3.96;45.64
83496;BME280;73431;40.794;43.836;2024-02-04T09:07:45;84293.06;;;3.97;44.31
83496;BME280;73431;40.794;43.836;2024-02-04T09:10:13;84309.72;;;4.00;45.45
83496;BME280;73431;40.794;43.836;2024-02-04T09:12:41;84310.44;;;3.75;45.77
83496;BME280;73431;40.794;43.836;2024-02-04T09:15:09;84313.28;;;3.27;44.49
83496;BME280;73431;40.794;43.836;2024-02-04T09:17:37;84315.78;;;3.01;46.10
83496;BME280;73431;40.794;43.836;2024-02-04T09:20:06;84296.13;;;3.00;45.54
83496;BME280;73431;40.794;43.836;2024-02-04T09:22:35;84316.56;;;3.14;46.43
83496;BME280;73431;40.794;43.836;2024-02-04T09:25:03;84305.84;;;3.54;47.18
83496;BME280;73431;40.794;43.836;2024-02-04T09:27:31;84295.25;;;3.86;45.36
83496;BME280;73431;40.794;43.836;2024-02-04T09:30:00;84289.53;;;3.91;45.84
83496;BME280;73431;40.794;43.836;2024-02-04T09:32:28;84296.19;;;4.17;45.73
83496;BME280;73431;40.794;43.836;2024-02-04T09:34:56;84285.53;;;4.50;45.90
83496;BME280;73431;40.794;43.836;2024-02-04T09:37:25;84288.78;;;4.75;44.98
83496;BME280;73431;40.794;43.836;2024-02-04T09:39:53;84281.94;;;5.03;44.54
83496;BME280;73431;40.794;43.836;2024-02-04T09:42:21;84278.03;;;5.08;44.46
83496;BME280;73431;40.794;43.836;2024-02-04T09:44:50;84273.81;;;5.23;44.13
83496;BME280;73431;40.794;43.836;2024-02-04T09:47:18;84275.25;;;5.02;42.36
83496;BME280;73431;40.794;43.836;2024-02-04T09:49:45;84266.34;;;4.44;43.00
83496;BME280;73431;40.794;43.836;2024-02-04T09:52:18;84262.72;;;4.28;44.68
83496;BME280;73431;40.794;43.836;2024-02-04T09:54:50;84266.19;;;4.60;44.59
83496;BME280;73431;40.794;43.836;2024-02-04T09:57:21;84258.41;;;4.94;45.12
83496;BME280;73431;40.794;43.836;2024-02-04T09:59:50;84245.03;;;5.14;44.32
83496;BME280;73431;40.794;43.836;2024-02-04T10:02:20;84256.44;;;4.86;42.83
83496;BME280;73431;40.794;43.836;2024-02-04T10:04:49;84245.84;;;4.33;43.74
83496;BME280;73431;40.794;43.836;2024-02-04T10:07:17;84237.94;;;4.37;44.25
83496;BME280;73431;40.794;43.836;2024-02-04T10:09:46;84244.66;;;4.47;44.39
83496;BME280;73431;40.794;43.836;2024-02-04T10:12:13;84240.47;;;4.62;45.67
83496;BME280;73431;40.794;43.836;2024-02-04T10:14:41;84233.91;;;5.13;45.05
83496;BME280;73431;40.794;43.836;2024-02-04T10:17:09;84229.22;;;5.52;44.56
83496;BME280;73431;40.794;43.836;2024-02-04T10:19:37;84224.06;;;5.39;42.66
83496;BME280;73431;40.794;43.836;2024-02-04T10:22:05;84227.13;;;5.47;44.22
83496;BME280;73431;40.794;43.836;2024-02-04T10:24:33;84223.44;;;5.88;44.53
83496;BME280;73431;40.794;43.836;2024-02-04T10:27:01;84220.81;;;6.27;43.47
83496;BME280;73431;40.794;43.836;2024-02-04T10:29:28;84225.09;;;6.61;44.18
83496;BME280;73431;40.794;43.836;2024-02-04T10:31:57;84196.91;;;6.38;40.21
83496;BME280;73431;40.794;43.836;2024-02-04T10:34:28;84221.44;;;6.41;42.21
83496;BME280;73431;40.794;43.836;2024-02-04T10:37:00;84222.50;;;5.81;40.85
83496;BME280;73431;40.794;43.836;2024-02-04T10:39:27;84225.09;;;5.72;42.17
83496;BME280;73431;40.794;43.836;2024-02-04T10:41:56;84220.88;;;5.75;44.14
83496;BME280;73431;40.794;43.836;2024-02-04T10:44:32;84211.91;;;6.07;44.43
83496;BME280;73431;40.794;43.836;2024-02-04T10:47:05;84210.91;;;6.13;43.16
83496;BME280;73431;40.794;43.836;2024-02-04T10:49:37;84197.91;;;6.31;43.50
83496;BME280;73431;40.794;43.836;2024-02-04T10:52:08;84205.88;;;5.88;41.51
83496;BME280;73431;40.794;43.836;2024-02-04T10:54:37;84198.81;;;5.67;42.65
83496;BME280;73431;40.794;43.836;2024-02-04T10:57:12;84210.34;;;4.82;42.48
83496;BME280;73431;40.794;43.836;2024-02-04T10:59:42;84215.78;;;4.54;44.26
83496;BME280;73431;40.794;43.836;2024-02-04T11:02:11;84205.88;;;4.14;44.51
83496;BME280;73431;40.794;43.836;2024-02-04T11:04:39;84210.63;;;4.28;46.06
83496;BME280;73431;40.794;43.836;2024-02-04T11:07:10;84217.19;;;4.67;45.57
83496;BME280;73431;40.794;43.836;2024-02-04T11:09:40;84199.91;;;4.61;43.52
83496;BME280;73431;40.794;43.836;2024-02-04T11:12:11;84215.19;;;4.50;44.59
83496;BME280;73431;40.794;43.836;2024-02-04T11:14:42;84208.16;;;4.12;46.89
83496;BME280;73431;40.794;43.836;2024-02-04T11:20:25;84204.31;;;4.51;44.61
83496;BME280;73431;40.794;43.836;2024-02-04T11:23:23;84202.69;;;3.98;44.71
83496;BME280;73431;40.794;43.836;2024-02-04T11:25:58;84201.78;;;3.29;46.42
83496;BME280;73431;40.794;43.836;2024-02-04T11:28:27;84210.88;;;2.95;46.44
83496;BME280;73431;40.794;43.836;2024-02-04T11:30:56;84187.00;;;2.72;48.02
83496;BME280;73431;40.794;43.836;2024-02-04T11:33:24;84212.00;;;2.94;47.60
83496;BME280;73431;40.794;43.836;2024-02-04T11:36:00;84210.81;;;2.70;48.29
83496;BME280;73431;40.794;43.836;2024-02-04T11:38:35;84208.97;;;2.83;48.30
83496;BME280;73431;40.794;43.836;2024-02-04T11:41:03;84213.25;;;2.90;47.91
83496;BME280;73431;40.794;43.836;2024-02-04T11:43:35;84212.81;;;2.79;48.11
83496;BME280;73431;40.794;43.836;2024-02-04T11:46:04;84221.13;;;2.45;49.55
83496;BME280;73431;40.794;43.836;2024-02-04T11:48:34;84220.38;;;2.73;49.41
83496;BME280;73431;40.794;43.836;2024-02-04T11:51:04;84230.72;;;2.89;48.59
83496;BME280;73431;40.794;43.836;2024-02-04T11:53:33;84221.75;;;3.19;48.43
83496;BME280;73431;40.794;43.836;2024-02-04T11:56:02;84234.63;;;2.81;47.93
83496;BME280;73431;40.794;43.836;2024-02-04T11:58:31;84228.53;;;2.88;48.67
83496;BME280;73431;40.794;43.836;2024-02-04T12:01:01;84229.53;;;3.19;48.52
83496;BME280;73431;40.794;43.836;2024-02-04T12:03:31;84224.88;;;3.39;48.03
83496;BME280;73431;40.794;43.836;2024-02-04T12:06:00;84226.72;;;3.26;47.80
83496;BME280;73431;40.794;43.836;2024-02-04T12:08:30;84234.31;;;3.33;47.82
83496;BME280;73431;40.794;43.836;2024-02-04T12:11:00;84230.88;;;3.11;47.06
83496;BME280;73431;40.794;43.836;2024-02-04T12:13:29;84229.31;;;2.72;48.35
83496;BME280;73431;40.794;43.836;2024-02-04T12:15:57;84232.47;;;2.80;48.10
83496;BME280;73431;40.794;43.836;2024-02-04T12:18:25;84225.75;;;2.95;48.47
83496;BME280;73431;40.794;43.836;2024-02-04T12:20:53;84222.97;;;3.14;48.23
83496;BME280;73431;40.794;43.836;2024-02-04T12:23:21;84230.66;;;3.05;48.50
83496;BME280;73431;40.794;43.836;2024-02-04T12:25:51;84225.91;;;2.88;47.79
83496;BME280;73431;40.794;43.836;2024-02-04T12:28:18;84228.09;;;2.48;48.57
83496;BME280;73431;40.794;43.836;2024-02-04T12:30:54;84211.69;;;2.51;49.83
83496;BME280;73431;40.794;43.836;2024-02-04T12:33:23;84216.09;;;2.66;48.81
83496;BME280;73431;40.794;43.836;2024-02-04T12:35:51;84221.56;;;2.27;49.54
83496;BME280;73431;40.794;43.836;2024-02-04T12:38:19;84208.63;;;2.40;49.59
83496;BME280;73431;40.794;43.836;2024-02-04T12:40:48;84215.97;;;2.57;48.99
83496;BME280;73431;40.794;43.836;2024-02-04T12:43:16;84214.97;;;2.67;49.72
83496;BME280;73431;40.794;43.836;2024-02-04T12:45:44;84213.53;;;2.79;49.00
83496;BME280;73431;40.794;43.836;2024-02-04T12:48:15;84217.00;;;2.89;49.46
83496;BME280;73431;40.794;43.836;2024-02-04T12:50:45;84221.78;;;2.90;49.19
83496;BME280;73431;40.794;43.836;2024-02-04T12:53:13;84215.00;;;2.80;48.96
83496;BME280;73431;40.794;43.836;2024-02-04T12:55:43;84218.75;;;2.79;49.11
83496;BME280;73431;40.794;43.836;2024-02-04T12:58:12;84215.75;;;2.81;48.74
83496;BME280;73431;40.794;43.836;2024-02-04T13:00:44;84220.81;;;2.84;48.64
83496;BME280;73431;40.794;43.836;2024-02-04T13:03:15;84210.13;;;2.82;49.20
83496;BME280;73431;40.794;43.836;2024-02-04T13:05:43;84204.00;;;2.47;49.00
83496;BME280;73431;40.794;43.836;2024-02-04T13:08:13;84231.22;;;2.27;50.33
83496;BME280;73431;40.794;43.836;2024-02-04T13:10:53;84237.47;;;2.29;50.93
83496;BME280;73431;40.794;43.836;2024-02-04T13:13:22;84232.00;;;2.40;50.67